Terminal Aerodrome Forecast
Issued by NWS

Home | Current Version | Previous Version | Text Only | Print | Product List | Glossary On
Versions: 1 2 3 4 5 6 7 8 9 10 11 12 13 14 15 16 17 18 19 20 21 22 23 24 25 26 27 28 29 30 31 32
000
FTUS43 KPAH 241734
TAFOWB
TAF
KOWB 241734Z 2418/2518 23008KT 6SM -RA BR OVC013
      TEMPO 2418/2422 4SM -RA BR OVC009
     FM242200 24008KT P6SM VCSH OVC009
     FM242300 25008KT 6SM -RA BR OVC007
     FM250400 26009KT P6SM OVC008
     FM251600 25011KT P6SM OVC012=

USA.gov is the U.S. government's official web portal to all federal, state and local government web resources and services.